createdAt,value
2022-10-29T00:00:54.912Z,176.63
2022-10-29T00:03:22.017Z,166.38
2022-10-29T00:06:02.620Z,167.80
2022-10-29T00:08:30.949Z,167.77
2022-10-29T00:11:07.217Z,172.73
2022-10-29T00:13:34.266Z,168.82
2022-10-29T00:16:04.933Z,175.88
2022-10-29T00:18:31.437Z,180.80
2022-10-29T00:21:06.263Z,165.85
2022-10-29T00:23:32.930Z,182.23
2022-10-29T00:26:00.105Z,171.40
2022-10-29T00:28:27.741Z,178.80
2022-10-29T00:30:54.702Z,173.35
2022-10-29T00:33:21.793Z,181.75
2022-10-29T00:36:03.473Z,171.13
2022-10-29T00:38:32.579Z,173.52
2022-10-29T00:40:59.361Z,165.80
2022-10-29T00:43:26.791Z,175.45
2022-10-29T00:45:57.774Z,169.15
2022-10-29T00:48:27.634Z,166.57
2022-10-29T00:50:56.281Z,167.15
2022-10-29T00:53:28.719Z,165.23
2022-10-29T00:55:55.245Z,166.40
2022-10-29T00:58:22.001Z,172.50
2022-10-29T01:00:48.518Z,165.95
2022-10-29T01:03:15.079Z,171.98
2022-10-29T01:05:42.485Z,174.98
2022-10-29T01:08:09.105Z,174.98
2022-10-29T01:11:09.969Z,168.05
2022-10-29T01:13:47.637Z,163.13
2022-10-29T01:16:39.285Z,166.75
2022-10-29T01:19:40.714Z,167.70
2022-10-29T01:22:18.164Z,170.43
2022-10-29T01:25:21.647Z,167.48
2022-10-29T01:28:17.241Z,174.18
2022-10-29T01:31:00.801Z,165.90
2022-10-29T01:33:34.661Z,167.65
2022-10-29T01:36:16.141Z,173.65
2022-10-29T01:39:03.009Z,171.30
2022-10-29T01:41:54.209Z,164.73
2022-10-29T01:44:40.235Z,159.93
2022-10-29T01:47:15.312Z,165.77
2022-10-29T01:49:44.444Z,167.40
2022-10-29T01:52:15.380Z,175.30
2022-10-29T01:54:43.354Z,168.40
2022-10-29T01:57:33.131Z,169.45
2022-10-29T02:00:09.962Z,177.00
2022-10-29T02:02:48.374Z,167.38
2022-10-29T02:05:30.301Z,168.00
2022-10-29T02:08:23.576Z,164.32
2022-10-29T02:10:59.229Z,175.52
2022-10-29T02:13:31.866Z,177.82
2022-10-29T02:16:00.401Z,175.35
2022-10-29T02:18:27.051Z,181.35
2022-10-29T02:20:53.622Z,170.02
2022-10-29T02:23:20.154Z,171.32
2022-10-29T02:25:46.666Z,179.50
2022-10-29T02:28:13.349Z,180.50
2022-10-29T02:30:39.964Z,175.85
2022-10-29T02:33:06.451Z,186.07
2022-10-29T02:35:32.976Z,186.52
2022-10-29T02:37:59.526Z,183.55
2022-10-29T02:40:26.083Z,171.48
2022-10-29T02:42:52.753Z,177.80
2022-10-29T02:45:19.385Z,180.57
2022-10-29T02:47:45.944Z,184.35
2022-10-29T02:50:12.480Z,181.73
2022-10-29T02:52:40.034Z,186.95
2022-10-29T02:55:06.794Z,173.80
2022-10-29T02:57:33.283Z,177.20
2022-10-29T02:59:59.752Z,179.25
2022-10-29T03:02:29.187Z,172.80
2022-10-29T03:04:55.812Z,170.98
2022-10-29T03:07:22.300Z,175.32
2022-10-29T03:09:48.764Z,184.38
2022-10-29T03:12:15.254Z,182.05
2022-10-29T03:14:41.737Z,177.35
2022-10-29T03:17:08.422Z,177.15
2022-10-29T03:19:34.893Z,175.05
2022-10-29T03:22:01.404Z,177.32
2022-10-29T03:24:27.875Z,181.27
2022-10-29T03:26:54.456Z,173.13
2022-10-29T03:29:20.962Z,175.48
2022-10-29T03:31:47.537Z,180.13
2022-10-29T03:34:14.053Z,171.23
2022-10-29T03:36:40.523Z,176.52
2022-10-29T03:39:07.043Z,167.48
2022-10-29T03:41:33.520Z,166.27
2022-10-29T03:44:00.016Z,169.52
2022-10-29T03:46:26.612Z,171.90
2022-10-29T03:48:53.092Z,162.32
2022-10-29T03:51:19.582Z,175.30
2022-10-29T03:53:46.173Z,162.57
2022-10-29T03:56:12.665Z,173.80
2022-10-29T03:58:39.193Z,175.52
2022-10-29T04:01:08.195Z,174.00
2022-10-29T04:03:36.269Z,175.00
2022-10-29T04:06:10.360Z,181.68
2022-10-29T04:08:37.580Z,173.18
2022-10-29T04:11:04.538Z,177.27
2022-10-29T04:13:31.072Z,178.55
2022-10-29T04:15:57.620Z,179.75
2022-10-29T04:18:24.760Z,189.05
2022-10-29T04:29:11.253Z,188.90
2022-10-29T04:31:38.135Z,201.35
2022-10-29T04:34:05.024Z,194.65
2022-10-29T04:36:31.565Z,204.48
2022-10-29T04:38:58.063Z,200.23
2022-10-29T04:41:24.627Z,208.05
2022-10-29T04:43:51.137Z,195.00
2022-10-29T04:46:17.624Z,203.85
2022-10-29T04:48:44.190Z,194.68
2022-10-29T04:51:21.549Z,182.77
2022-10-29T04:53:48.303Z,180.48
2022-10-29T04:56:14.840Z,166.32
2022-10-29T04:58:41.393Z,173.85
2022-10-29T05:01:07.939Z,179.25
2022-10-29T05:03:34.956Z,186.70
2022-10-29T05:06:05.691Z,189.73
2022-10-29T05:08:32.662Z,184.60
2022-10-29T05:11:04.973Z,184.18
2022-10-29T05:13:32.413Z,187.13
2022-10-29T05:15:58.984Z,187.10
2022-10-29T05:18:25.762Z,185.23
2022-10-29T05:20:56.061Z,187.38
2022-10-29T05:23:22.593Z,182.82
2022-10-29T05:25:51.248Z,193.23
2022-10-29T05:28:22.253Z,190.02
2022-10-29T05:30:50.423Z,198.68
2022-10-29T05:33:24.721Z,192.02
2022-10-29T05:35:51.658Z,189.45
2022-10-29T05:38:18.251Z,181.00
2022-10-29T05:40:45.457Z,180.27
2022-10-29T05:43:16.399Z,182.07
2022-10-29T05:45:43.524Z,168.05
2022-10-29T05:50:38.881Z,197.00
2022-10-29T05:53:07.266Z,189.45
2022-10-29T05:55:37.280Z,177.77
2022-10-29T05:58:06.444Z,176.10
2022-10-29T06:00:35.580Z,189.75
2022-10-29T06:03:02.337Z,200.75
2022-10-29T06:05:29.243Z,201.77
2022-10-29T06:07:57.553Z,207.30
2022-10-29T06:10:25.354Z,221.65
2022-10-29T06:12:51.938Z,221.02
2022-10-29T06:15:18.743Z,235.52
2022-10-29T06:17:46.212Z,239.68
2022-10-29T06:20:14.336Z,243.82
2022-10-29T06:22:41.559Z,259.80
2022-10-29T06:25:09.996Z,269.50
2022-10-29T06:27:37.349Z,262.00
2022-10-29T06:30:05.037Z,253.63
2022-10-29T06:32:32.821Z,252.65
2022-10-29T06:34:59.316Z,264.02
2022-10-29T06:37:25.814Z,255.57
2022-10-29T06:39:52.313Z,260.00
2022-10-29T06:42:18.801Z,246.15
2022-10-29T06:44:45.316Z,263.13
2022-10-29T06:47:11.784Z,256.75
2022-10-29T06:49:38.318Z,254.82
2022-10-29T06:52:05.133Z,251.57
2022-10-29T06:54:31.633Z,250.75
2022-10-29T06:56:58.122Z,243.35
2022-10-29T06:59:24.624Z,240.98
2022-10-29T07:01:51.220Z,236.57
2022-10-29T07:04:18.542Z,247.18
2022-10-29T07:06:45.218Z,245.65
2022-10-29T07:09:11.749Z,242.80
2022-10-29T07:11:38.401Z,247.13
2022-10-29T07:14:06.024Z,234.50
2022-10-29T07:16:32.705Z,238.57
2022-10-29T07:18:59.472Z,235.35
2022-10-29T07:21:25.948Z,241.32
2022-10-29T07:23:52.479Z,243.77
2022-10-29T07:26:19.583Z,250.35
2022-10-29T07:28:46.184Z,242.68
2022-10-29T07:31:12.669Z,256.33
2022-10-29T07:33:39.174Z,260.70
2022-10-29T07:36:06.152Z,273.90
2022-10-29T07:38:32.639Z,269.30
2022-10-29T07:40:59.647Z,267.25
2022-10-29T07:43:26.149Z,272.13
2022-10-29T07:45:52.720Z,267.33
2022-10-29T07:48:20.430Z,273.88
2022-10-29T07:50:48.113Z,276.48
2022-10-29T07:53:14.677Z,274.35
2022-10-29T07:55:41.482Z,273.70
2022-10-29T07:58:11.417Z,268.75
2022-10-29T08:00:40.435Z,261.70
2022-10-29T08:03:07.508Z,267.80
2022-10-29T08:05:34.339Z,263.27
2022-10-29T08:08:01.060Z,251.88
2022-10-29T08:10:29.625Z,256.80
2022-10-29T08:13:00.989Z,252.10
2022-10-29T08:15:30.548Z,235.20
2022-10-29T08:17:57.331Z,236.02
2022-10-29T08:20:26.296Z,236.10
2022-10-29T08:22:52.796Z,231.70
2022-10-29T08:25:19.843Z,218.50
2022-10-29T08:27:46.408Z,219.40
2022-10-29T08:30:14.597Z,231.15
2022-10-29T08:32:47.116Z,238.95
2022-10-29T08:35:14.635Z,236.32
2022-10-29T08:37:45.268Z,224.13
2022-10-29T08:40:31.815Z,224.40
2022-10-29T08:43:19.424Z,221.73
2022-10-29T08:45:48.708Z,233.90
2022-10-29T08:48:33.567Z,241.15
2022-10-29T08:53:58.662Z,234.15
2022-10-29T08:56:38.262Z,243.77
2022-10-29T08:59:10.783Z,256.67
2022-10-29T09:01:38.068Z,252.60
2022-10-29T09:04:18.043Z,264.60
2022-10-29T09:07:03.225Z,258.95
2022-10-29T09:09:38.412Z,257.52
2022-10-29T09:12:04.845Z,243.05
2022-10-29T09:14:31.313Z,246.98
2022-10-29T09:17:03.177Z,232.27
2022-10-29T09:19:32.354Z,232.48
2022-10-29T09:22:21.805Z,242.73
2022-10-29T09:24:54.240Z,208.48
2022-10-29T09:27:26.581Z,211.23
2022-10-29T09:30:14.186Z,216.75
2022-10-29T09:32:56.401Z,225.15
2022-10-29T09:35:38.572Z,200.15
2022-10-29T09:38:19.019Z,187.57
2022-10-29T09:40:46.309Z,194.20
2022-10-29T09:43:21.768Z,203.02
2022-10-29T09:45:53.840Z,199.20
2022-10-29T09:48:36.580Z,207.25
2022-10-29T09:51:23.067Z,191.27
2022-10-29T09:53:51.257Z,171.85
2022-10-29T09:56:18.085Z,162.85
2022-10-29T09:58:49.558Z,143.88
2022-10-29T10:01:16.550Z,142.10
2022-10-29T10:03:47.299Z,139.35
2022-10-29T10:06:16.200Z,149.07
2022-10-29T10:09:04.585Z,143.80
2022-10-29T10:11:38.678Z,130.00
2022-10-29T10:14:17.960Z,122.85
2022-10-29T10:16:44.781Z,115.90
2022-10-29T10:19:26.910Z,117.13
2022-10-29T10:21:59.685Z,106.22
2022-10-29T10:24:37.406Z,103.10
2022-10-29T10:27:19.209Z,103.10
2022-10-29T10:30:04.516Z,100.35
2022-10-29T10:32:31.784Z,99.47
2022-10-29T10:34:58.288Z,109.25
2022-10-29T10:37:24.819Z,115.88
2022-10-29T10:40:00.302Z,129.48
2022-10-29T10:42:30.901Z,129.82
2022-10-29T10:45:03.570Z,117.60
2022-10-29T10:47:35.512Z,104.45
2022-10-29T10:50:18.915Z,112.72
2022-10-29T10:52:45.965Z,105.72
2022-10-29T10:55:50.624Z,130.77
2022-10-29T10:58:26.683Z,125.35
2022-10-29T11:01:18.994Z,131.35
2022-10-29T11:03:48.750Z,133.15
2022-10-29T11:06:16.997Z,131.93
2022-10-29T11:08:51.597Z,141.10
2022-10-29T11:13:50.605Z,117.63
2022-10-29T11:16:41.216Z,131.10
2022-10-29T11:19:28.519Z,130.73
2022-10-29T11:22:37.263Z,133.55
2022-10-29T11:25:16.086Z,134.32
2022-10-29T11:27:53.632Z,113.60
2022-10-29T11:30:20.922Z,119.72
2022-10-29T11:33:10.147Z,125.15
2022-10-29T11:35:55.003Z,90.95
2022-10-29T11:38:45.937Z,86.00
2022-10-29T11:41:38.193Z,91.97
2022-10-29T11:44:12.079Z,95.05
2022-10-29T11:46:49.319Z,111.63
2022-10-29T11:49:55.774Z,103.57
2022-10-29T11:52:33.258Z,90.60
2022-10-29T11:55:17.503Z,104.07
2022-10-29T11:57:59.122Z,108.05
2022-10-29T12:00:32.322Z,111.95
2022-10-29T12:03:18.468Z,119.38
2022-10-29T12:05:58.491Z,119.40
2022-10-29T12:08:48.316Z,110.97
2022-10-29T12:11:21.308Z,118.97
2022-10-29T12:13:50.391Z,127.80
2022-10-29T12:16:28.802Z,130.50
2022-10-29T12:19:18.282Z,138.27
2022-10-29T12:21:56.012Z,135.70
2022-10-29T12:24:46.594Z,140.48
2022-10-29T12:27:27.822Z,153.05
2022-10-29T12:30:05.550Z,140.93
2022-10-29T12:33:00.947Z,155.85
2022-10-29T12:35:55.509Z,155.43
2022-10-29T12:38:42.152Z,158.85
2022-10-29T12:41:21.929Z,170.68
2022-10-29T12:43:50.784Z,205.10
2022-10-29T12:46:43.470Z,209.32
2022-10-29T12:49:36.324Z,207.77
2022-10-29T12:52:10.165Z,188.43
2022-10-29T12:54:49.629Z,184.40
2022-10-29T12:57:16.062Z,168.93
2022-10-29T12:59:43.920Z,182.30
2022-10-29T13:02:30.369Z,188.38
2022-10-29T13:05:05.900Z,193.68
2022-10-29T13:07:33.957Z,189.85
2022-10-29T13:10:22.319Z,197.57
2022-10-29T13:13:13.702Z,171.18
2022-10-29T13:15:43.961Z,165.00
2022-10-29T13:18:31.682Z,174.75
2022-10-29T13:20:59.196Z,181.45
2022-10-29T13:23:27.494Z,170.93
2022-10-29T13:25:55.592Z,177.15
2022-10-29T13:28:22.030Z,174.77
2022-10-29T13:30:50.436Z,181.30
2022-10-29T13:33:26.134Z,183.15
2022-10-29T13:35:56.532Z,177.90
2022-10-29T13:38:51.912Z,174.93
2022-10-29T13:41:43.440Z,155.00
2022-10-29T13:44:11.912Z,169.57
2022-10-29T13:46:52.912Z,168.55
2022-10-29T13:49:24.623Z,179.98
2022-10-29T13:51:54.097Z,180.57
2022-10-29T13:54:30.427Z,212.27
2022-10-29T13:57:28.941Z,196.20
2022-10-29T14:00:15.726Z,183.77
2022-10-29T14:02:42.271Z,193.13
2022-10-29T14:05:14.685Z,197.77
2022-10-29T14:08:03.149Z,194.60
2022-10-29T14:10:34.740Z,191.23
2022-10-29T14:13:23.525Z,200.95
2022-10-29T14:16:06.310Z,184.32
2022-10-29T14:18:43.760Z,182.63
2022-10-29T14:21:21.617Z,184.27
2022-10-29T14:24:09.747Z,193.10
2022-10-29T14:26:39.418Z,186.18
2022-10-29T14:29:22.284Z,196.88
2022-10-29T14:32:07.797Z,195.02
2022-10-29T14:34:34.419Z,199.63
2022-10-29T14:37:14.831Z,205.10
2022-10-29T14:39:57.857Z,197.57
2022-10-29T14:42:41.046Z,192.90
2022-10-29T14:45:17.771Z,187.68
2022-10-29T14:47:50.234Z,193.20
2022-10-29T14:50:22.611Z,194.50
2022-10-29T14:52:55.863Z,190.77
2022-10-29T14:55:30.635Z,195.10
2022-10-29T14:58:05.396Z,194.45
2022-10-29T15:00:37.029Z,191.82
2022-10-29T15:03:06.153Z,194.63
2022-10-29T15:05:36.159Z,194.13
2022-10-29T15:08:08.771Z,196.65
2022-10-29T15:10:50.139Z,191.88
2022-10-29T15:13:36.837Z,190.15
2022-10-29T15:16:09.948Z,176.98
2022-10-29T15:18:38.140Z,188.35
2022-10-29T15:21:05.772Z,185.90
2022-10-29T15:23:35.480Z,189.13
2022-10-29T15:26:08.118Z,192.85
2022-10-29T15:28:40.095Z,182.90
2022-10-29T15:31:07.714Z,194.27
2022-10-29T15:33:36.021Z,194.57
2022-10-29T15:36:04.600Z,194.65
2022-10-29T15:38:31.151Z,205.13
2022-10-29T15:41:18.954Z,202.30
2022-10-29T15:43:57.434Z,188.77
2022-10-29T15:46:35.351Z,197.00
2022-10-29T15:49:01.831Z,201.88
2022-10-29T15:51:30.389Z,200.63
2022-10-29T15:53:58.965Z,206.05
2022-10-29T15:56:25.868Z,204.93
2022-10-29T15:58:53.384Z,203.40
2022-10-29T16:01:19.927Z,210.93
2022-10-29T16:03:46.609Z,214.90
2022-10-29T16:06:15.712Z,216.35
2022-10-29T16:08:48.197Z,220.38
2022-10-29T16:11:22.849Z,209.45
2022-10-29T16:13:54.668Z,211.65
2022-10-29T16:16:24.146Z,215.18
2022-10-29T16:18:51.469Z,215.65
2022-10-29T16:21:24.350Z,220.55
2022-10-29T16:23:51.635Z,215.23
2022-10-29T16:26:20.848Z,214.43
2022-10-29T16:28:47.733Z,215.32
2022-10-29T16:31:25.917Z,219.40
2022-10-29T16:33:55.313Z,213.73
2022-10-29T16:36:21.991Z,218.90
2022-10-29T16:38:48.560Z,220.18
2022-10-29T16:41:17.629Z,227.80
2022-10-29T16:43:44.683Z,232.68
2022-10-29T16:46:12.747Z,226.77
2022-10-29T16:48:39.937Z,235.23
2022-10-29T16:51:06.886Z,225.85
2022-10-29T16:53:33.751Z,230.43
2022-10-29T16:56:01.601Z,229.57
2022-10-29T16:58:28.319Z,235.82
2022-10-29T17:01:10.420Z,230.75
2022-10-29T17:03:39.068Z,232.68
2022-10-29T17:06:07.818Z,237.75
2022-10-29T17:08:36.126Z,239.95
2022-10-29T17:11:06.007Z,240.32
2022-10-29T17:13:34.122Z,239.88
2022-10-29T17:16:00.654Z,231.80
2022-10-29T17:18:27.138Z,237.18
2022-10-29T17:21:01.285Z,235.15
2022-10-29T17:23:29.054Z,229.05
2022-10-29T17:25:56.875Z,236.27
2022-10-29T17:28:25.117Z,233.48
2022-10-29T17:30:52.076Z,243.30
2022-10-29T17:33:19.349Z,244.95
2022-10-29T17:35:46.149Z,246.27
2022-10-29T17:38:13.090Z,248.52
2022-10-29T17:40:43.037Z,245.90
2022-10-29T17:43:09.631Z,243.50
2022-10-29T17:45:37.055Z,235.63
2022-10-29T17:48:03.753Z,246.48
2022-10-29T17:50:30.319Z,246.07
2022-10-29T17:52:57.969Z,248.70
2022-10-29T17:55:24.745Z,238.77
2022-10-29T17:57:51.278Z,242.68
2022-10-29T18:00:17.922Z,242.07
2022-10-29T18:02:44.543Z,242.80
2022-10-29T18:05:11.100Z,243.88
2022-10-29T18:07:37.619Z,246.60
2022-10-29T18:10:04.356Z,245.18
2022-10-29T18:12:30.894Z,249.07
2022-10-29T18:14:57.390Z,247.20
2022-10-29T18:17:24.032Z,245.68
2022-10-29T18:19:50.566Z,246.60
2022-10-29T18:22:17.070Z,241.43
2022-10-29T18:24:43.607Z,251.25
2022-10-29T18:27:10.103Z,249.95
2022-10-29T18:29:36.610Z,244.25
2022-10-29T18:32:03.283Z,247.95
2022-10-29T18:34:31.629Z,247.50
2022-10-29T18:36:58.228Z,247.50
2022-10-29T18:39:24.723Z,248.77
2022-10-29T18:41:51.215Z,242.60
2022-10-29T18:44:17.756Z,242.15
2022-10-29T18:46:44.313Z,247.60
2022-10-29T18:49:12.992Z,242.88
2022-10-29T18:51:39.893Z,237.05
2022-10-29T18:54:06.433Z,242.27
2022-10-29T18:56:32.928Z,241.73
2022-10-29T18:59:00.399Z,239.68
2022-10-29T19:01:31.408Z,240.10
2022-10-29T19:04:04.190Z,247.52
2022-10-29T19:06:33.363Z,238.18
2022-10-29T19:09:01.600Z,240.85
2022-10-29T19:11:29.234Z,249.50
2022-10-29T19:14:06.582Z,241.98
2022-10-29T19:16:33.952Z,237.45
2022-10-29T19:21:38.761Z,236.77
2022-10-29T19:24:06.521Z,240.55
2022-10-29T19:26:35.350Z,243.38
2022-10-29T19:29:03.245Z,245.18
2022-10-29T19:31:31.554Z,241.88
2022-10-29T19:34:00.644Z,240.57
2022-10-29T19:36:28.690Z,236.90
2022-10-29T19:38:55.812Z,241.43
2022-10-29T19:41:22.463Z,243.75
2022-10-29T19:43:49.211Z,243.25
2022-10-29T19:46:17.984Z,241.57
2022-10-29T19:48:49.401Z,245.75
2022-10-29T19:51:15.916Z,240.73
2022-10-29T19:53:42.404Z,253.57
2022-10-29T19:56:11.722Z,244.63
2022-10-29T19:58:38.514Z,238.45
2022-10-29T20:01:07.159Z,240.43
2022-10-29T20:03:33.694Z,234.85
2022-10-29T20:06:00.390Z,240.95
2022-10-29T20:08:27.465Z,239.13
2022-10-29T20:10:58.553Z,238.52
2022-10-29T20:13:26.398Z,230.45
2022-10-29T20:15:53.722Z,235.30
2022-10-29T20:18:20.856Z,230.55
2022-10-29T20:20:53.442Z,239.25
2022-10-29T20:23:19.999Z,238.05
2022-10-29T20:25:46.499Z,236.93
2022-10-29T20:28:13.255Z,237.63
2022-10-29T20:30:39.767Z,237.27
2022-10-29T20:33:06.272Z,232.35
2022-10-29T20:35:32.822Z,233.15
2022-10-29T20:37:59.660Z,239.93
2022-10-29T20:40:26.331Z,237.40
2022-10-29T20:42:52.889Z,240.95
2022-10-29T20:45:19.914Z,237.57
2022-10-29T20:47:46.667Z,245.85
2022-10-29T20:50:13.225Z,238.52
2022-10-29T20:52:42.248Z,241.38
2022-10-29T20:55:12.296Z,237.45
2022-10-29T20:57:38.813Z,242.73
2022-10-29T21:00:05.965Z,242.07
2022-10-29T21:02:32.530Z,243.82
2022-10-29T21:04:59.121Z,238.95
2022-10-29T21:07:25.601Z,245.70
2022-10-29T21:09:52.159Z,239.48
2022-10-29T21:12:18.672Z,248.32
2022-10-29T21:14:45.228Z,243.00
2022-10-29T21:17:11.764Z,244.50
2022-10-29T21:19:38.321Z,235.07
2022-10-29T21:22:04.861Z,244.73
2022-10-29T21:24:31.377Z,237.48
2022-10-29T21:26:57.862Z,242.98
2022-10-29T21:29:24.405Z,240.88
2022-10-29T21:31:50.897Z,243.45
2022-10-29T21:34:17.382Z,240.57
2022-10-29T21:36:43.952Z,241.15
2022-10-29T21:39:10.465Z,238.43
2022-10-29T21:41:36.953Z,241.23
2022-10-29T21:44:03.606Z,240.57
2022-10-29T21:46:30.083Z,231.57
2022-10-29T21:48:56.736Z,229.65
2022-10-29T21:51:23.274Z,236.23
2022-10-29T21:53:49.960Z,234.07
2022-10-29T21:56:16.564Z,232.60
2022-10-29T21:58:43.765Z,241.30
2022-10-29T22:01:12.891Z,232.75
2022-10-29T22:03:41.555Z,229.02
2022-10-29T22:06:16.531Z,238.68
2022-10-29T22:08:43.634Z,217.38
2022-10-29T22:11:11.424Z,226.10
2022-10-29T22:13:38.440Z,230.35
2022-10-29T22:16:06.979Z,228.10
2022-10-29T22:18:34.554Z,227.05
2022-10-29T22:21:03.793Z,218.27
2022-10-29T22:23:30.349Z,220.43
2022-10-29T22:25:56.870Z,222.20
2022-10-29T22:28:23.375Z,227.38
2022-10-29T22:30:57.196Z,224.88
2022-10-29T22:33:23.762Z,216.43
2022-10-29T22:35:50.237Z,214.35
2022-10-29T22:38:16.732Z,216.18
2022-10-29T22:40:43.226Z,212.63
2022-10-29T22:43:09.811Z,221.70
2022-10-29T22:45:36.302Z,215.43
2022-10-29T22:48:02.948Z,211.20
2022-10-29T22:50:29.561Z,213.80
2022-10-29T22:52:56.200Z,211.43
2022-10-29T22:55:22.993Z,216.40
2022-10-29T22:57:49.461Z,210.68
2022-10-29T23:00:16.038Z,205.63
2022-10-29T23:02:42.601Z,222.27
2022-10-29T23:05:09.163Z,212.85
2022-10-29T23:07:35.653Z,213.23
2022-10-29T23:10:02.137Z,214.35
2022-10-29T23:12:28.661Z,210.32
2022-10-29T23:14:55.131Z,213.75
2022-10-29T23:17:21.620Z,207.18
2022-10-29T23:19:48.096Z,207.75
2022-10-29T23:24:46.113Z,211.35
2022-10-29T23:27:12.594Z,211.18
2022-10-29T23:29:39.092Z,210.43
2022-10-29T23:32:05.610Z,204.52
2022-10-29T23:34:32.078Z,199.50
2022-10-29T23:37:00.426Z,203.52
2022-10-29T23:39:28.687Z,202.70
2022-10-29T23:41:55.155Z,205.80
2022-10-29T23:44:21.650Z,206.82
2022-10-29T23:46:48.158Z,201.90
2022-10-29T23:49:14.924Z,202.60
2022-10-29T23:51:41.473Z,200.60
2022-10-29T23:54:07.981Z,205.60
2022-10-29T23:56:34.462Z,195.23
2022-10-29T23:59:00.940Z,199.02
